Time;durP1;ratioP1;P1;durP2;ratioP2;P2;SDS_P1;SDS_P2;PMS_P1;PMS_P2;Temp;Humidity;BMP_temperature;BMP_pressure;BME280_temperature;BME280_humidity;BME280_pressure;Samples;Min_cycle;Max_cycle;Signal;HPM_P1;HPM_P2
2022/12/01 00:00:21;;;;;;;;;46.25;39.00;;;;;9.62;68.45;101948.72;2092900;28;46540;-64
2022/12/01 00:01:22;;;;;;;;;46.25;37.75;;;;;9.61;68.38;101945.19;2094900;28;46479;-64
2022/12/01 00:02:22;;;;;;;;;48.50;40.75;;;;;9.61;68.60;101946.97;2095861;28;46207;-64
2022/12/01 00:03:23;;;;;;;;;46.75;36.75;;;;;9.59;68.14;101940.78;2095407;28;46230;-65
2022/12/01 00:04:23;;;;;;;;;47.60;38.40;;;;;9.58;68.39;101939.88;2095210;28;46663;-64
2022/12/01 00:05:24;;;;;;;;;46.50;39.00;;;;;9.57;68.34;101950.50;2095297;28;46771;-64
2022/12/01 00:06:24;;;;;;;;;39.25;33.25;;;;;9.55;68.45;101945.19;2095290;28;46255;-66
2022/12/01 00:07:25;;;;;;;;;54.50;42.25;;;;;9.54;68.53;101937.25;2095162;28;46689;-63
2022/12/01 00:08:26;;;;;;;;;39.00;33.25;;;;;9.55;68.47;101944.31;2095380;28;46217;-64
2022/12/01 00:10:45;;;;;;;;;47.60;38.40;;;;;9.53;68.24;101933.72;2095236;28;46353;-63
2022/12/01 00:11:46;;;;;;;;;34.25;33.00;;;;;9.53;68.45;101941.66;2095304;28;45502;-64
2022/12/01 00:12:46;;;;;;;;;49.25;41.00;;;;;9.53;68.56;101941.66;2095293;28;46174;-64
2022/12/01 00:13:46;;;;;;;;;47.25;37.50;;;;;9.52;68.48;101934.56;2095174;28;46613;-63
2022/12/01 00:14:53;;;;;;;;;53.00;43.00;;;;;9.51;68.49;101931.91;2095458;28;46654;-64
2022/12/01 00:15:53;;;;;;;;;42.80;36.20;;;;;9.49;68.54;101933.69;2084522;28;45289;-64
2022/12/01 00:16:54;;;;;;;;;46.75;37.75;;;;;9.47;68.53;101928.38;2084896;28;46402;-65
2022/12/01 00:17:54;;;;;;;;;41.50;37.50;;;;;9.47;68.64;101930.16;2091865;28;46722;-65
2022/12/01 00:18:55;;;;;;;;;48.75;40.25;;;;;9.44;68.65;101925.72;2095352;28;46679;-64
2022/12/01 00:19:56;;;;;;;;;42.75;37.00;;;;;9.44;68.49;101925.72;2095251;28;46478;-63
2022/12/01 00:20:56;;;;;;;;;52.50;43.00;;;;;9.43;68.54;101930.16;2094221;28;46392;-62
2022/12/01 00:21:56;;;;;;;;;51.00;41.00;;;;;9.43;68.49;101931.91;2094359;28;46994;-64
2022/12/01 00:22:57;;;;;;;;;53.50;39.50;;;;;9.42;68.34;101930.16;2095659;28;46524;-64
2022/12/01 00:23:57;;;;;;;;;47.50;37.00;;;;;9.42;68.55;101927.50;2095152;28;46569;-63
2022/12/01 00:24:58;;;;;;;;;47.25;39.50;;;;;9.40;68.31;101935.44;2095419;28;46389;-64
2022/12/01 00:26:03;;;;;;;;;51.50;40.25;;;;;9.40;68.34;101934.53;2093450;28;46752;-64
2022/12/01 00:27:04;;;;;;;;;47.60;39.00;;;;;9.36;68.32;101938.94;2094425;28;46862;-63
2022/12/01 00:28:04;;;;;;;;;46.75;38.50;;;;;9.35;68.49;101936.31;2094971;28;46754;-64
2022/12/01 00:29:04;;;;;;;;;42.75;37.00;;;;;9.33;68.47;101943.38;2095949;28;46526;-64
2022/12/01 00:30:08;;;;;;;;;47.75;39.00;;;;;9.30;68.54;101938.94;2095583;28;45926;-64
2022/12/01 00:31:10;;;;;;;;;46.80;38.80;;;;;9.30;68.54;101935.41;2095175;28;47672;-63
2022/12/01 00:32:11;;;;;;;;;44.20;39.00;;;;;9.28;68.44;101934.53;2094999;28;46972;-63
2022/12/01 00:33:11;;;;;;;;;42.75;37.25;;;;;9.28;68.45;101934.53;2095493;28;46468;-63
2022/12/01 00:34:21;;;;;;;;;46.25;39.50;;;;;9.27;68.40;101932.72;2095141;28;46293;-66
2022/12/01 00:35:22;;;;;;;;;47.60;38.40;;;;;9.27;68.24;101930.09;2095251;28;45976;-64
2022/12/01 00:36:23;;;;;;;;;50.00;40.75;;;;;9.25;68.43;101926.53;2095142;28;46538;-64
2022/12/01 00:37:23;;;;;;;;;46.20;38.40;;;;;9.24;68.38;101932.72;2095400;28;46446;-63
2022/12/01 00:38:23;;;;;;;;;44.75;38.25;;;;;9.22;68.49;101932.72;2095108;28;46556;-64
2022/12/01 00:39:24;;;;;;;;;44.50;38.00;;;;;9.22;68.32;101939.78;2095370;28;46569;-64
2022/12/01 00:40:24;;;;;;;;;43.25;36.00;;;;;9.21;68.39;101938.91;2094873;28;46881;-64
2022/12/01 00:41:24;;;;;;;;;48.00;39.25;;;;;9.20;68.43;101930.97;2095441;28;46105;-65
2022/12/01 00:42:26;;;;;;;;;42.75;36.00;;;;;9.21;68.63;101938.03;2095310;28;45777;-64
2022/12/01 00:43:26;;;;;;;;;48.80;39.60;;;;;9.21;68.45;101943.31;2095460;28;46477;-64
2022/12/01 00:44:26;;;;;;;;;43.25;38.25;;;;;9.19;68.45;101938.03;2095526;28;45956;-64
2022/12/01 00:45:27;;;;;;;;;44.00;37.75;;;;;9.20;68.41;101936.25;2096653;28;46496;-64
2022/12/01 00:46:27;;;;;;;;;50.25;39.00;;;;;9.20;68.30;101934.50;2096468;28;46193;-64
2022/12/01 00:47:27;;;;;;;;;42.50;38.50;;;;;9.20;68.47;101938.91;2096927;28;45844;-63
2022/12/01 00:48:28;;;;;;;;;43.50;38.25;;;;;9.19;68.18;101934.50;2096913;28;46127;-64
2022/12/01 00:49:28;;;;;;;;;44.50;38.75;;;;;9.20;68.21;101931.84;2096697;28;46215;-65
2022/12/01 00:50:29;;;;;;;;;48.50;38.25;;;;;9.20;68.15;101938.91;2096557;28;46261;-63
2022/12/01 00:51:29;;;;;;;;;52.40;38.00;;;;;9.19;68.14;101929.19;2095816;28;46371;-63
2022/12/01 00:52:30;;;;;;;;;46.00;37.75;;;;;9.19;68.13;101935.38;2097872;28;46033;-64
2022/12/01 00:53:30;;;;;;;;;45.25;37.50;;;;;9.18;68.07;101928.31;2096706;28;45683;-66
2022/12/01 00:54:31;;;;;;;;;50.50;40.25;;;;;9.18;68.13;101932.72;2096550;28;46641;-63
2022/12/01 00:55:31;;;;;;;;;48.75;38.25;;;;;9.17;68.30;101931.84;2086887;28;46063;-63
2022/12/01 00:56:31;;;;;;;;;44.00;38.00;;;;;9.16;67.93;101930.06;2086947;28;46814;-64
2022/12/01 00:57:32;;;;;;;;;48.50;39.50;;;;;9.17;67.93;101936.25;2096939;28;45827;-65
2022/12/01 00:58:32;;;;;;;;;47.00;39.25;;;;;9.15;67.93;101930.97;2096668;28;46472;-63
2022/12/01 00:59:33;;;;;;;;;43.75;36.00;;;;;9.13;68.26;101936.22;2096384;28;46760;-64
2022/12/01 01:00:37;;;;;;;;;49.20;39.60;;;;;9.12;68.03;101933.56;2096687;28;46867;-61
2022/12/01 01:01:37;;;;;;;;;51.60;43.00;;;;;9.12;68.09;101937.09;2094410;28;46617;-64
2022/12/01 01:02:39;;;;;;;;;39.50;35.75;;;;;9.12;67.94;101938.88;2096805;28;46323;-65
2022/12/01 01:03:39;;;;;;;;;8.40;3.00;;;;;9.11;67.83;101939.75;2097030;28;46723;-64
2022/12/01 01:04:39;;;;;;;;;46.50;39.00;;;;;9.11;67.96;101934.44;2096714;28;46555;-64
2022/12/01 01:05:41;;;;;;;;;50.50;40.75;;;;;9.11;68.17;101937.09;2096522;28;46693;-65
2022/12/01 01:06:44;;;;;;;;;47.80;39.40;;;;;9.11;68.05;101937.09;2096568;28;46724;-65
2022/12/01 01:07:44;;;;;;;;;47.20;39.00;;;;;9.09;68.02;101937.09;2096470;28;45628;-63
2022/12/01 01:08:45;;;;;;;;;50.50;39.50;;;;;9.09;68.10;101931.81;2095798;28;46329;-63
2022/12/01 01:09:45;;;;;;;;;47.00;39.00;;;;;9.08;68.01;101927.38;2095798;28;46397;-66
2022/12/01 01:10:47;;;;;;;;;42.00;34.75;;;;;9.07;68.25;101936.22;2097005;28;46331;-66
2022/12/01 01:11:47;;;;;;;;;49.00;38.80;;;;;9.08;68.12;101937.09;2096630;28;45723;-63
2022/12/01 01:12:48;;;;;;;;;49.50;39.50;;;;;9.08;67.81;101934.44;2096508;28;46871;-64
2022/12/01 01:13:48;;;;;;;;;44.50;35.50;;;;;9.08;68.12;101939.75;2104081;28;47318;-64
2022/12/01 01:14:48;;;;;;;;;47.75;40.00;;;;;9.08;68.08;101931.78;2102323;28;46064;-65
2022/12/01 01:16:06;;;;;;;;;48.25;39.00;;;;;9.08;67.90;101939.75;2094274;28;46184;-66
2022/12/01 01:17:06;;;;;;;;;46.80;39.40;;;;;9.07;68.03;101937.97;2096777;28;46612;-63
2022/12/01 01:18:08;;;;;;;;;48.75;41.25;;;;;9.06;67.85;101937.09;2096581;28;46398;-66
2022/12/01 01:19:08;;;;;;;;;48.00;39.80;;;;;9.05;67.88;101935.31;2096677;28;46706;-64
2022/12/01 01:20:09;;;;;;;;;34.00;30.00;;;;;9.05;68.03;101932.69;2096761;28;46418;-65
2022/12/01 01:21:13;;;;;;;;;48.50;37.50;;;;;9.04;67.87;101936.22;2096484;28;46423;-65
2022/12/01 01:22:13;;;;;;;;;48.20;36.40;;;;;9.05;68.06;101942.38;2096177;28;46372;-64
2022/12/01 01:23:13;;;;;;;;;43.00;38.50;;;;;9.05;67.89;101942.38;2096662;28;45849;-64
2022/12/01 01:24:14;;;;;;;;;54.75;43.00;;;;;9.03;68.06;101942.38;2096255;28;46632;-63
2022/12/01 01:25:14;;;;;;;;;44.75;36.25;;;;;9.01;68.01;101938.81;2096514;28;46189;-63
2022/12/01 01:26:16;;;;;;;;;48.75;40.50;;;;;9.02;68.06;101951.22;2095955;28;46300;-63
2022/12/01 01:27:17;;;;;;;;;46.40;38.40;;;;;9.00;68.01;101936.16;2096942;28;46458;-66
2022/12/01 01:28:18;;;;;;;;;46.25;36.50;;;;;9.00;67.83;101944.09;2094883;28;46106;-64
2022/12/01 01:29:19;;;;;;;;;42.00;37.00;;;;;8.99;68.11;101939.69;2093362;28;46826;-64
2022/12/01 01:30:19;;;;;;;;;46.25;38.25;;;;;8.98;68.08;101945.88;2096264;28;46353;-65
2022/12/01 01:31:22;;;;;;;;;48.25;39.50;;;;;8.99;67.88;101942.34;2096367;28;46446;-64
2022/12/01 01:32:22;;;;;;;;;51.60;42.60;;;;;8.96;68.09;101937.94;2096374;28;46720;-64
2022/12/01 01:33:23;;;;;;;;;50.00;42.00;;;;;8.97;67.89;101944.09;2096544;28;46668;-65
2022/12/01 01:34:23;;;;;;;;;44.50;38.75;;;;;8.97;67.87;101941.47;2096219;28;46544;-65
2022/12/01 01:35:24;;;;;;;;;51.75;40.75;;;;;8.95;68.04;101946.75;2096433;28;46665;-65
2022/12/01 01:36:25;;;;;;;;;47.75;40.75;;;;;8.96;68.34;101942.34;2095962;28;46480;-63
2022/12/01 01:37:26;;;;;;;;;44.60;38.60;;;;;8.96;68.00;101947.63;2096363;28;46520;-65
2022/12/01 01:38:27;;;;;;;;;50.75;39.75;;;;;8.95;67.98;101952.03;2094469;28;46875;-64
2022/12/01 01:39:27;;;;;;;;;50.20;39.20;;;;;8.94;68.08;101944.97;2095187;28;46435;-63
2022/12/01 01:40:27;;;;;;;;;47.00;40.00;;;;;8.96;68.19;101950.28;2096145;28;46387;-64
2022/12/01 01:41:28;;;;;;;;;52.75;41.50;;;;;8.96;68.18;101942.34;2096082;28;46179;-65
2022/12/01 01:42:28;;;;;;;;;52.50;40.00;;;;;8.95;68.07;101952.03;2086749;28;46472;-64
2022/12/01 01:43:45;;;;;;;;;42.25;36.25;;;;;8.97;68.04;101952.03;2084881;28;46603;-64
2022/12/01 01:44:54;;;;;;;;;43.80;38.60;;;;;8.98;68.13;101956.47;2095598;28;46540;-65
2022/12/01 01:45:55;;;;;;;;;49.20;38.80;;;;;8.99;68.17;101955.59;2096545;28;46464;-65
2022/12/01 01:46:55;;;;;;;;;47.00;39.25;;;;;9.00;68.23;101952.94;2096039;28;47197;-65
2022/12/01 01:47:58;;;;;;;;;49.25;39.75;;;;;9.02;68.45;101961.78;2096184;28;46454;-63
2022/12/01 01:49:10;;;;;;;;;44.40;36.20;;;;;9.02;68.14;101963.53;2077887;28;47135;-64
2022/12/01 01:50:14;;;;;;;;;46.60;38.20;;;;;9.05;68.28;101966.22;2081015;28;46243;-64
2022/12/01 01:51:18;;;;;;;;;42.40;37.40;;;;;9.05;68.03;101960.91;2095946;28;46623;-64
2022/12/01 01:52:20;;;;;;;;;46.20;37.40;;;;;9.04;68.10;101973.28;2096603;28;46300;-64
2022/12/01 01:53:21;;;;;;;;;52.60;42.00;;;;;9.06;67.94;101962.69;2094247;28;46589;-65
2022/12/01 01:54:27;;;;;;;;;46.25;40.00;;;;;9.06;67.83;101970.63;2096248;28;46097;-64
2022/12/01 01:55:30;;;;;;;;;50.60;39.60;;;;;9.07;68.02;101964.47;2094893;28;46224;-64
2022/12/01 01:56:32;;;;;;;;;40.40;36.00;;;;;9.08;67.77;101966.22;2095858;28;46423;-64
2022/12/01 01:57:33;;;;;;;;;50.20;40.40;;;;;9.07;67.91;101962.69;2096045;28;46594;-64
2022/12/01 01:58:36;;;;;;;;;52.00;41.80;;;;;9.07;67.70;101960.03;2096607;28;46728;-63
2022/12/01 01:59:42;;;;;;;;;49.60;40.60;;;;;9.06;67.77;101958.28;2096063;28;46621;-63
2022/12/01 02:00:43;;;;;;;;;50.60;41.00;;;;;9.07;67.73;101961.81;2096522;28;46421;-65
2022/12/01 02:01:50;;;;;;;;;50.00;40.00;;;;;9.08;67.81;101963.56;2095934;28;46396;-63
2022/12/01 02:02:52;;;;;;;;;50.00;41.20;;;;;9.08;67.76;101958.28;2104104;28;46516;-63
2022/12/01 02:03:53;;;;;;;;;45.20;37.00;;;;;9.08;67.74;101959.16;2103702;28;46939;-64
2022/12/01 02:05:01;;;;;;;;;47.20;38.80;;;;;9.07;67.62;101954.75;2096306;28;46382;-64
2022/12/01 02:06:01;;;;;;;;;42.80;35.20;;;;;9.07;67.81;101956.50;2095965;28;46393;-61
2022/12/01 02:07:02;;;;;;;;;44.75;38.50;;;;;9.06;67.91;101958.28;2096573;28;46440;-64
2022/12/01 02:08:04;;;;;;;;;54.00;41.40;;;;;9.06;67.75;101954.75;2095430;28;46888;-64
2022/12/01 02:09:05;;;;;;;;;43.00;35.20;;;;;9.05;67.39;101956.50;2093760;28;45861;-62
2022/12/01 02:10:12;;;;;;;;;50.50;36.25;;;;;9.04;67.52;101948.56;2095387;28;46460;-63
2022/12/01 02:11:24;;;;;;;;;41.80;35.80;;;;;9.04;67.68;101952.09;2096189;28;47004;-63
2022/12/01 02:12:39;;;;;;;;;45.40;39.00;;;;;9.04;67.68;101952.09;2095083;28;46747;-62
2022/12/01 02:14:13;;;;;;;;;46.60;38.80;;;;;9.03;68.19;101947.69;2096255;28;46581;-64
2022/12/01 02:15:16;;;;;;;;;49.60;36.60;;;;;9.04;67.66;101949.44;2095904;28;47014;-64
2022/12/01 02:16:26;;;;;;;;;48.20;37.40;;;;;9.04;67.73;101949.44;2095769;28;46845;-64
2022/12/01 02:17:48;;;;;;;;;52.00;41.00;;;;;9.05;67.86;101940.63;2093247;28;46990;-64
2022/12/01 02:18:58;;;;;;;;;46.00;39.00;;;;;9.05;67.69;101945.03;2094236;28;46838;-65
2022/12/01 02:20:21;;;;;;;;;40.00;34.80;;;;;9.04;67.42;101941.50;2096070;28;46854;-66
2022/12/01 02:21:51;;;;;;;;;43.00;36.20;;;;;9.04;67.59;101941.50;2095509;28;45649;-65
2022/12/01 02:23:13;;;;;;;;;46.00;37.60;;;;;9.05;67.36;101945.03;2078190;28;46507;-64
2022/12/01 02:24:32;;;;;;;;;50.20;42.00;;;;;9.05;67.58;101942.38;2078277;28;46534;-63
2022/12/01 02:25:47;;;;;;;;;43.80;37.00;;;;;9.04;67.19;101941.50;2078594;28;46846;-63
2022/12/01 02:26:59;;;;;;;;;46.40;37.60;;;;;9.02;67.22;101937.97;2078374;28;46908;-63
2022/12/01 02:28:06;;;;;;;;;52.40;40.60;;;;;9.04;67.46;101932.69;2078591;28;46734;-66
2022/12/01 02:29:15;;;;;;;;;46.20;38.20;;;;;9.04;67.63;101935.31;2078474;28;47141;-64
2022/12/01 02:30:37;;;;;;;;;50.80;40.00;;;;;9.03;67.38;101934.44;2079868;28;46878;-65
2022/12/01 02:32:15;;;;;;;;;47.00;39.20;;;;;9.04;67.57;101930.03;2078973;28;47123;-63
2022/12/01 02:33:22;;;;;;;;;50.60;37.80;;;;;9.03;67.49;101933.56;2054237;28;46889;-61
2022/12/01 02:34:27;;;;;;;;;43.20;36.20;;;;;9.01;67.62;101928.22;2054140;28;46580;-65
2022/12/01 02:36:02;;;;;;;;;43.40;36.20;;;;;9.01;67.74;101940.59;2054332;28;46913;-63
2022/12/01 02:37:27;;;;;;;;;44.00;37.40;;;;;9.00;67.59;101933.50;2029677;29;46365;-64
2022/12/01 02:38:33;;;;;;;;;42.20;38.00;;;;;8.98;67.59;101933.50;2031501;28;48078;-63
2022/12/01 02:39:46;;;;;;;;;46.00;36.20;;;;;8.98;67.55;101941.47;2033040;28;46073;-66
2022/12/01 02:40:59;;;;;;;;;45.80;38.60;;;;;8.98;67.59;101937.94;2029739;28;46795;-66
2022/12/01 02:42:48;;;;;;;;;49.20;41.00;;;;;8.97;67.76;101933.50;2031094;28;46562;-64
2022/12/01 02:43:53;;;;;;;;;41.20;36.40;;;;;8.97;67.98;101929.09;2029953;28;46767;-62
2022/12/01 02:44:56;;;;;;;;;50.40;42.20;;;;;8.97;67.62;101934.41;2030581;28;46776;-64
2022/12/01 02:46:08;;;;;;;;;46.00;39.20;;;;;8.97;67.90;101936.16;2031714;28;46584;-64
2022/12/01 02:47:13;;;;;;;;;50.00;38.80;;;;;8.96;67.68;101926.44;2031509;28;46417;-64
2022/12/01 02:48:19;;;;;;;;;45.20;39.40;;;;;8.94;67.75;101926.44;2031485;28;46726;-63
2022/12/01 02:49:25;;;;;;;;;52.40;41.60;;;;;8.93;67.90;101935.28;2032560;28;46729;-63
2022/12/01 02:50:28;;;;;;;;;48.80;38.20;;;;;8.93;67.94;101931.75;2028655;28;47021;-64
2022/12/01 02:51:31;;;;;;;;;41.00;36.80;;;;;8.93;67.80;101932.63;2030073;28;46863;-64
2022/12/01 02:52:32;;;;;;;;;43.60;37.00;;;;;8.95;67.80;101940.56;2032555;28;46405;-64
2022/12/01 02:53:33;;;;;;;;;44.00;35.60;;;;;8.95;67.90;101936.16;2030472;28;45831;-64
2022/12/01 02:54:34;;;;;;;;;45.50;36.75;;;;;8.97;68.03;101938.81;2031934;28;45482;-63
2022/12/01 02:55:35;;;;;;;;;44.60;36.20;;;;;8.97;67.63;101942.34;2029656;28;46858;-64
2022/12/01 02:56:35;;;;;;;;;41.00;36.50;;;;;8.97;67.63;101942.34;2027148;28;46493;-65
2022/12/01 02:57:35;;;;;;;;;47.75;39.25;;;;;8.97;67.67;101939.69;2032296;28;45956;-65
2022/12/01 02:58:36;;;;;;;;;45.00;38.25;;;;;8.97;67.63;101944.09;2032025;28;46449;-64
2022/12/01 02:59:36;;;;;;;;;39.75;35.25;;;;;8.97;67.79;101942.34;2029638;29;45341;-65
2022/12/01 03:00:36;;;;;;;;;47.75;35.25;;;;;8.98;67.81;101940.56;2035187;28;46627;-65
2022/12/01 03:02:08;;;;;;;;;39.50;34.25;;;;;8.98;67.51;101941.47;2043474;28;46407;-64
2022/12/01 03:03:34;;;;;;;;;51.60;41.80;;;;;8.97;67.80;101931.75;2039427;28;45141;-64
2022/12/01 03:04:46;;;;;;;;;43.40;37.80;;;;;8.98;67.69;101937.94;2039654;28;46340;-64
2022/12/01 03:05:57;;;;;;;;;45.20;36.20;;;;;8.98;67.70;101932.63;2039813;28;46410;-64
2022/12/01 03:07:02;;;;;;;;;41.80;36.00;;;;;8.98;67.83;101933.50;2036522;28;46639;-66
2022/12/01 03:08:32;;;;;;;;;41.40;36.00;;;;;8.97;67.61;101926.44;2037942;28;46446;-64
2022/12/01 03:09:55;;;;;;;;;43.60;37.00;;;;;8.96;67.72;101929.97;2054785;28;46866;-63
2022/12/01 03:10:57;;;;;;;;;41.60;36.80;;;;;8.97;67.51;101928.22;2045874;28;46796;-63
2022/12/01 03:12:19;;;;;;;;;43.80;37.40;;;;;8.96;67.80;101932.63;2043809;28;46398;-64
2022/12/01 03:13:22;;;;;;;;;42.20;34.80;;;;;8.97;67.48;101928.22;2043700;28;46960;-65
2022/12/01 03:14:32;;;;;;;;;44.00;36.60;;;;;8.96;67.77;101929.97;2062687;28;46910;-63
2022/12/01 03:15:47;;;;;;;;;37.60;34.00;;;;;8.97;67.51;101930.88;2070168;28;46338;-65
2022/12/01 03:16:53;;;;;;;;;50.20;40.00;;;;;8.97;67.53;101929.09;2069380;28;46366;-64
2022/12/01 03:18:08;;;;;;;;;32.80;30.20;;;;;8.95;67.52;101924.69;2070126;28;46569;-65
2022/12/01 03:19:33;;;;;;;;;40.40;34.80;;;;;8.94;67.44;101928.22;2069877;28;46545;-65
2022/12/01 03:20:41;;;;;;;;;48.40;39.40;;;;;8.95;67.67;101925.56;2069987;28;46402;-65
2022/12/01 03:21:51;;;;;;;;;43.40;35.80;;;;;8.96;67.77;101927.34;2069095;28;46330;-65
2022/12/01 03:23:03;;;;;;;;;45.60;36.60;;;;;8.96;67.97;101923.81;2069901;28;48499;-66
2022/12/01 03:24:14;;;;;;;;;45.80;37.00;;;;;8.97;67.64;101923.81;2070231;28;46652;-65
2022/12/01 03:25:16;;;;;;;;;47.60;39.20;;;;;8.98;67.67;101917.63;2069504;28;46608;-63
2022/12/01 03:26:20;;;;;;;;;44.40;39.00;;;;;8.99;67.63;101922.03;2070112;28;46444;-64
2022/12/01 03:27:26;;;;;;;;;49.00;38.20;;;;;8.99;67.50;101922.03;2069705;28;46352;-63
2022/12/01 03:28:34;;;;;;;;;49.40;39.00;;;;;8.98;67.60;101920.28;2070214;28;46308;-63
2022/12/01 03:29:40;;;;;;;;;49.00;39.60;;;;;8.98;67.48;101927.34;2068566;28;46407;-63
2022/12/01 03:30:43;;;;;;;;;39.60;35.40;;;;;8.99;67.69;101923.81;2070605;28;46821;-62
2022/12/01 03:31:49;;;;;;;;;49.80;39.80;;;;;8.98;67.71;101929.97;2070190;28;46553;-63
2022/12/01 03:33:20;;;;;;;;;44.00;37.80;;;;;8.98;67.70;101927.34;2070299;28;46897;-64
2022/12/01 03:34:27;;;;;;;;;48.00;39.80;;;;;8.96;67.31;101927.34;2045892;28;46664;-63
2022/12/01 03:35:34;;;;;;;;;38.00;35.20;;;;;8.95;67.48;101932.63;2045190;28;46949;-63
2022/12/01 03:36:41;;;;;;;;;48.20;36.40;;;;;8.94;67.67;101928.22;2043973;28;47017;-62
2022/12/01 03:37:52;;;;;;;;;44.40;37.80;;;;;8.92;67.66;101928.22;2046106;28;46914;-64
2022/12/01 03:38:59;;;;;;;;;50.80;38.80;;;;;8.91;67.59;101925.56;2049308;28;46609;-63
2022/12/01 03:40:05;;;;;;;;;43.80;38.40;;;;;8.91;67.75;101926.44;2046169;28;46495;-64
2022/12/01 03:41:16;;;;;;;;;42.60;37.40;;;;;8.91;67.78;101929.09;2048201;28;46329;-63
2022/12/01 03:42:27;;;;;;;;;35.40;32.00;;;;;8.90;67.67;101927.31;2046809;28;46372;-63
2022/12/01 03:43:32;;;;;;;;;49.80;40.20;;;;;8.90;67.77;101929.09;2044588;28;46307;-64
2022/12/01 03:44:42;;;;;;;;;46.80;39.80;;;;;8.90;67.72;101929.09;2045921;28;46907;-63
2022/12/01 03:45:51;;;;;;;;;51.00;39.60;;;;;8.89;67.77;101933.47;2046964;28;45799;-63
2022/12/01 03:46:57;;;;;;;;;47.20;39.60;;;;;8.90;67.70;101931.72;2047463;28;47027;-64
2022/12/01 03:47:57;;;;;;;;;49.20;38.60;;;;;8.88;67.65;101934.34;2049217;28;45541;-64
2022/12/01 03:48:58;;;;;;;;;44.00;36.50;;;;;8.89;67.78;101932.59;2064778;28;46634;-63
2022/12/01 03:49:59;;;;;;;;;44.00;37.25;;;;;8.90;67.83;101926.44;2069424;28;46186;-63
2022/12/01 03:51:04;;;;;;;;;52.40;41.40;;;;;8.88;67.69;101931.69;2069671;28;46697;-63
2022/12/01 03:52:28;;;;;;;;;51.20;38.80;;;;;8.88;67.80;101934.34;2066577;28;46681;-62
2022/12/01 03:53:43;;;;;;;;;49.20;39.80;;;;;8.88;67.91;101937.00;2069493;28;46514;-64
2022/12/01 03:54:52;;;;;;;;;48.60;39.20;;;;;8.90;67.66;101939.69;2069231;28;46731;-63
2022/12/01 03:56:01;;;;;;;;;40.20;36.20;;;;;8.89;67.78;101930.81;2069507;28;46851;-64
2022/12/01 03:57:07;;;;;;;;;47.20;39.00;;;;;8.89;67.79;101930.81;2069687;28;46715;-64
2022/12/01 03:58:13;;;;;;;;;48.60;39.80;;;;;8.89;67.82;101933.47;2068761;28;47874;-64
2022/12/01 03:59:16;;;;;;;;;48.40;38.40;;;;;8.90;67.80;101935.25;2069747;28;46862;-63
2022/12/01 04:00:18;;;;;;;;;51.60;40.60;;;;;8.91;67.99;101930.84;2069342;28;46346;-64
2022/12/01 04:01:21;;;;;;;;;45.60;36.40;;;;;8.90;68.12;101929.97;2069589;28;46804;-64
2022/12/01 04:02:24;;;;;;;;;46.80;39.80;;;;;8.90;67.89;101926.44;2068171;28;46946;-64
2022/12/01 04:03:25;;;;;;;;;49.40;38.00;;;;;8.90;67.99;101931.72;2068788;28;46608;-64
2022/12/01 04:04:25;;;;;;;;;44.60;35.20;;;;;8.91;67.94;101928.22;2069757;28;46359;-64
2022/12/01 04:05:26;;;;;;;;;41.00;35.00;;;;;8.90;67.93;101927.31;2069823;28;46244;-64
2022/12/01 04:06:26;;;;;;;;;51.75;41.00;;;;;8.91;67.94;101925.56;2069552;28;46516;-64
2022/12/01 04:07:27;;;;;;;;;51.00;41.00;;;;;8.91;67.92;101926.44;2069543;28;46033;-64
2022/12/01 04:08:29;;;;;;;;;44.50;37.50;;;;;8.91;67.83;101929.09;2069615;28;46623;-64
2022/12/01 04:09:29;;;;;;;;;49.40;41.60;;;;;8.92;67.80;101919.38;2068725;28;46874;-64
2022/12/01 04:10:31;;;;;;;;;48.25;39.50;;;;;8.91;67.90;101926.44;2069131;28;46488;-65
2022/12/01 04:12:57;;;;;;;;;41.00;36.40;;;;;8.92;67.79;101916.75;2091631;28;46340;-64
2022/12/01 04:13:58;;;;;;;;;47.00;39.80;;;;;8.91;67.90;101915.84;2095706;28;46632;-64
2022/12/01 04:15:00;;;;;;;;;49.00;40.25;;;;;8.89;67.96;101916.69;2095308;28;46905;-64
2022/12/01 04:16:00;;;;;;;;;47.40;39.00;;;;;8.88;67.99;101920.22;2095272;28;46397;-63
2022/12/01 04:17:01;;;;;;;;;45.75;36.50;;;;;8.87;67.88;101914.06;2095388;28;45987;-63
2022/12/01 04:18:01;;;;;;;;;48.00;39.25;;;;;8.87;68.01;101915.81;2095206;28;46080;-64
2022/12/01 04:19:01;;;;;;;;;50.50;39.75;;;;;8.87;67.83;101923.75;2095547;28;46830;-65
2022/12/01 04:20:03;;;;;;;;;45.00;37.25;;;;;8.85;67.86;101914.03;2096401;28;46455;-63
2022/12/01 04:21:03;;;;;;;;;51.40;39.60;;;;;8.85;67.97;101913.16;2096699;28;46476;-64
2022/12/01 04:22:03;;;;;;;;;47.75;36.25;;;;;8.85;67.92;101921.09;2096849;28;46846;-63
2022/12/01 04:23:04;;;;;;;;;46.50;39.00;;;;;8.84;67.88;101919.34;2094358;28;46621;-64
2022/12/01 04:24:04;;;;;;;;;43.25;36.50;;;;;8.84;68.00;101919.34;2097377;28;46758;-63
2022/12/01 04:25:06;;;;;;;;;48.25;39.50;;;;;8.84;67.97;101917.56;2097338;28;47132;-63
2022/12/01 04:26:06;;;;;;;;;44.00;37.00;;;;;8.85;67.95;101921.09;2096922;28;46532;-64
2022/12/01 04:27:07;;;;;;;;;46.00;39.00;;;;;8.85;67.93;101914.03;2096988;28;45080;-64
2022/12/01 04:28:07;;;;;;;;;49.50;41.50;;;;;8.86;67.66;101912.28;2097232;28;46769;-63
2022/12/01 04:29:10;;;;;;;;;46.00;36.50;;;;;8.86;67.95;101920.22;2096938;28;45763;-63
2022/12/01 04:30:11;;;;;;;;;46.00;36.00;;;;;8.86;67.68;101920.22;2096847;28;46767;-64
2022/12/01 04:31:11;;;;;;;;;45.80;36.20;;;;;8.83;67.90;101923.75;2096635;28;46648;-64
2022/12/01 04:32:12;;;;;;;;;48.25;40.25;;;;;8.80;67.84;101915.81;2096632;28;46351;-65
2022/12/01 04:33:12;;;;;;;;;44.50;34.00;;;;;8.81;67.81;101921.97;2097053;28;46346;-62
2022/12/01 04:34:13;;;;;;;;;50.75;40.00;;;;;8.79;67.82;101924.63;2097013;28;46113;-64
2022/12/01 04:35:13;;;;;;;;;50.25;40.25;;;;;8.79;67.95;101919.31;2097051;28;46587;-64
2022/12/01 04:36:13;;;;;;;;;41.50;36.75;;;;;8.78;67.69;101927.25;2096945;28;46898;-64
2022/12/01 04:37:14;;;;;;;;;49.50;39.75;;;;;8.77;67.87;101930.78;2096633;28;46621;-65
2022/12/01 04:38:14;;;;;;;;;50.25;39.50;;;;;8.75;67.67;101922.81;2096686;28;46938;-64
2022/12/01 04:39:14;;;;;;;;;51.50;38.50;;;;;8.75;67.68;101924.56;2097662;28;46371;-64
2022/12/01 04:40:15;;;;;;;;;48.75;38.00;;;;;8.74;67.87;101928.09;2096493;28;46830;-66
2022/12/01 04:41:15;;;;;;;;;47.50;39.25;;;;;8.74;67.69;101928.09;2096868;28;46139;-63
2022/12/01 04:42:15;;;;;;;;;51.00;37.00;;;;;8.74;67.93;101928.09;2096895;28;46476;-63
2022/12/01 04:43:16;;;;;;;;;46.75;38.25;;;;;8.73;67.91;101928.97;2096572;28;46411;-64
2022/12/01 04:44:16;;;;;;;;;45.50;38.50;;;;;8.71;67.93;101926.31;2096575;28;46038;-62
2022/12/01 04:45:16;;;;;;;;;41.25;36.25;;;;;8.70;67.82;101926.31;2097014;28;46811;-64
2022/12/01 04:46:17;;;;;;;;;44.75;37.25;;;;;8.69;67.92;101924.56;2096478;28;46259;-64
2022/12/01 04:47:17;;;;;;;;;50.75;39.25;;;;;8.68;67.83;101928.97;2086970;28;46187;-64
2022/12/01 04:48:17;;;;;;;;;44.25;38.75;;;;;8.67;68.00;101924.56;2086615;28;45526;-64
2022/12/01 04:49:19;;;;;;;;;36.25;32.50;;;;;8.66;68.09;101924.56;2096433;28;46744;-64
2022/12/01 04:50:19;;;;;;;;;43.20;34.40;;;;;8.65;67.95;101918.38;2104438;28;46944;-62
2022/12/01 04:51:21;;;;;;;;;43.00;35.25;;;;;8.65;68.06;101922.78;2103832;28;46629;-64
2022/12/01 04:52:21;;;;;;;;;48.00;39.20;;;;;8.65;68.02;101921.03;2094456;28;46386;-63
2022/12/01 04:53:21;;;;;;;;;43.25;35.75;;;;;8.65;67.83;101925.44;2096640;28;46251;-63
2022/12/01 04:54:22;;;;;;;;;40.25;31.75;;;;;8.64;68.08;101920.97;2096426;28;46369;-65
2022/12/01 04:55:24;;;;;;;;;46.50;37.25;;;;;8.62;67.96;101920.09;2097300;28;46671;-63
2022/12/01 04:56:24;;;;;;;;;42.60;36.20;;;;;8.61;67.94;101924.50;2096370;28;46856;-64
2022/12/01 04:57:25;;;;;;;;;40.00;34.75;;;;;8.61;67.80;101931.56;2096757;28;45665;-65
2022/12/01 04:58:26;;;;;;;;;45.25;38.50;;;;;8.59;68.09;101920.97;2086928;28;46763;-63
2022/12/01 04:59:27;;;;;;;;;45.40;37.80;;;;;8.61;67.95;101936.84;2090695;28;45956;-63